Princetown, New York
Current Conditions -  °F | °C
As of 9:51 PM on Saturday 22 Nov 2014 (Local Time) from KALB Reporting Station
Light Rain Light Rain  
Wind Chill: 31°   Ceiling: 3000
Heat Index: 38°   Visibility: 8mi
Dew Point: 25°   Wind: 10mph
Humidity: 60%   Direction: 170°S
Pressure: 30.08"   Gusts: NA
Location:  42.7716°N, 74.0887°W
Report Text: KALB 230251Z 17009KT 8SM -RA OVC030 03/M04 A3008 RMK AO2 RAB19 SLP189 P0000 60001 T00331039 56005
Loading
Personal Weather Stations






























Interactive Weather Map New forecast layout! Learn more

10-Day Weather Forecast

Advertisements
Track Severe Weather on mobile